Time;durP1;ratioP1;P1;durP2;ratioP2;P2;SDS_P1;SDS_P2;PMS_P1;PMS_P2;Temp;Humidity;BMP_temperature;BMP_pressure;BME280_temperature;BME280_humidity;BME280_pressure;Samples;Min_cycle;Max_cycle;Signal;HPM_P1;HPM_P2
2022/01/01 00:00:53;;;;;;;;;;;;;;;12.66;84.68;101718.50;5023754;27;19915;-70
2022/01/01 00:03:18;;;;;;;;;;;;;;;12.55;85.13;101721.19;5023660;27;19960;-70
2022/01/01 00:05:43;;;;;;;;;;;;;;;12.53;85.73;101715.97;5021911;27;20171;-68
2022/01/01 00:08:11;;;;;;;;;;;;;;;12.56;85.51;101717.53;5019592;27;20485;-70
2022/01/01 00:10:36;;;;;;;;;;;;;;;12.52;85.63;101714.31;5040009;27;19915;-70
2022/01/01 00:13:02;;;;;;;;;;;;;;;12.52;85.28;101716.09;5019184;27;20214;-69
2022/01/01 00:15:28;;;;;;;;;;;;;;;12.75;84.60;101713.34;5018223;27;19967;-69
2022/01/01 00:17:53;;;;;;;;;;;;;;;12.64;84.76;101715.09;5022874;27;21287;-69
2022/01/01 00:20:18;;;;;;;;;;;;;;;12.69;84.42;101717.38;5024133;27;20081;-68
2022/01/01 00:22:44;;;;;;;;;;;;;;;12.86;84.12;101714.16;5016735;27;20207;-69
2022/01/01 00:25:09;;;;;;;;;;;;;;;12.62;84.79;101719.72;5034538;27;20923;-69
2022/01/01 00:27:35;;;;;;;;;;;;;;;12.58;84.88;101731.53;5032541;27;20016;-69
2022/01/01 00:30:00;;;;;;;;;;;;;;;12.56;85.40;101738.78;5018816;27;19964;-68
2022/01/01 00:32:25;;;;;;;;;;;;;;;12.59;85.09;101727.91;5053162;27;19997;-68
2022/01/01 00:34:50;;;;;;;;;;;;;;;12.61;84.98;101731.28;5047774;27;20028;-68
2022/01/01 00:37:16;;;;;;;;;;;;;;;12.65;85.07;101727.41;5049271;27;19993;-70
2022/01/01 00:39:41;;;;;;;;;;;;;;;12.61;85.11;101725.97;5052822;27;20007;-70
2022/01/01 00:42:06;;;;;;;;;;;;;;;12.63;84.95;101729.34;5032711;27;19903;-69
2022/01/01 00:44:32;;;;;;;;;;;;;;;12.58;85.12;101728.03;5013186;27;19915;-70
2022/01/01 00:46:57;;;;;;;;;;;;;;;12.55;85.34;101731.81;5032590;27;19965;-69
2022/01/01 00:49:23;;;;;;;;;;;;;;;12.56;85.53;101737.94;5034508;27;20027;-68
2022/01/01 00:51:48;;;;;;;;;;;;;;;12.67;85.12;101735.25;5032485;27;20078;-68
2022/01/01 00:54:13;;;;;;;;;;;;;;;12.82;84.38;101743.78;5030274;27;19975;-69
2022/01/01 00:56:38;;;;;;;;;;;;;;;12.67;84.61;101730.78;5039931;27;20004;-69
2022/01/01 00:59:04;;;;;;;;;;;;;;;12.60;84.98;101729.59;5051584;27;19913;-69
2022/01/01 01:01:29;;;;;;;;;;;;;;;12.68;84.70;101736.94;5051545;27;19903;-69
2022/01/01 01:03:54;;;;;;;;;;;;;;;12.69;84.97;101741.28;5053921;27;19903;-69
2022/01/01 01:06:19;;;;;;;;;;;;;;;12.75;84.48;101747.88;5046072;27;19911;-69
2022/01/01 01:08:44;;;;;;;;;;;;;;;12.70;84.71;101746.47;5033797;27;20424;-69
2022/01/01 01:11:10;;;;;;;;;;;;;;;12.71;84.75;101753.44;5012135;27;19949;-68
2022/01/01 01:13:35;;;;;;;;;;;;;;;12.75;84.35;101747.88;5011478;28;20394;-68
2022/01/01 01:16:00;;;;;;;;;;;;;;;12.64;84.97;101741.66;5020024;27;20138;-69
2022/01/01 01:18:26;;;;;;;;;;;;;;;12.79;84.53;101744.00;5049609;27;19944;-69
2022/01/01 01:20:51;;;;;;;;;;;;;;;12.84;83.86;101742.66;5031694;27;19899;-68
2022/01/01 01:23:17;;;;;;;;;;;;;;;12.68;84.62;101743.09;5038038;27;19912;-68
2022/01/01 01:25:42;;;;;;;;;;;;;;;12.75;84.35;101739.91;5032288;27;20129;-68
2022/01/01 01:28:08;;;;;;;;;;;;;;;12.73;84.91;101739.22;5031688;27;19912;-68
2022/01/01 01:30:33;;;;;;;;;;;;;;;12.80;84.20;101745.72;5031762;27;19919;-68
2022/01/01 01:32:59;;;;;;;;;;;;;;;12.93;83.71;101757.03;5020170;27;19908;-68
2022/01/01 01:35:24;;;;;;;;;;;;;;;12.80;83.89;101751.00;5015998;27;19944;-68
2022/01/01 01:37:49;;;;;;;;;;;;;;;12.92;83.51;101754.50;5045942;27;20020;-68
2022/01/01 01:40:14;;;;;;;;;;;;;;;12.81;83.62;101756.19;5010754;27;19949;-68
2022/01/01 01:42:42;;;;;;;;;;;;;;;12.67;84.57;101756.50;5015404;27;20000;-68
2022/01/01 01:45:12;;;;;;;;;;;;;;;12.65;84.89;101761.94;5031027;27;19931;-68
2022/01/01 01:47:38;;;;;;;;;;;;;;;12.88;83.66;101754.72;5034225;27;19915;-68
2022/01/01 01:50:04;;;;;;;;;;;;;;;12.75;83.85;101750.53;5033281;27;19919;-68
2022/01/01 01:52:32;;;;;;;;;;;;;;;12.62;84.51;101748.06;5014210;27;19960;-69
2022/01/01 01:54:58;;;;;;;;;;;;;;;12.62;84.93;101753.38;5019391;27;19912;-68
2022/01/01 01:57:23;;;;;;;;;;;;;;;12.57;84.92;101740.47;5012743;28;20327;-68
2022/01/01 01:59:48;;;;;;;;;;;;;;;12.57;84.63;101740.47;4993921;28;20372;-69
2022/01/01 02:02:13;;;;;;;;;;;;;;;12.61;84.46;101747.22;5009840;28;20314;-69
2022/01/01 02:04:39;;;;;;;;;;;;;;;12.71;83.52;101753.44;5010053;28;20132;-69
2022/01/01 02:07:10;;;;;;;;;;;;;;;12.67;83.52;101749.38;5023087;27;19915;-70
2022/01/01 02:09:35;;;;;;;;;;;;;;;12.61;83.67;101751.69;5020457;27;19971;-69
2022/01/01 02:12:04;;;;;;;;;;;;;;;12.58;84.03;101763.41;5011221;27;19984;-70
2022/01/01 02:14:51;;;;;;;;;;;;;;;12.59;83.70;101759.75;5034966;27;20028;-69
2022/01/01 02:17:16;;;;;;;;;;;;;;;12.64;83.74;101765.56;5031736;27;19908;-68
2022/01/01 02:19:45;;;;;;;;;;;;;;;12.65;83.47;101764.59;5032610;27;19940;-68
2022/01/01 02:22:11;;;;;;;;;;;;;;;12.64;83.38;101767.38;5012959;27;20285;-69
2022/01/01 02:24:36;;;;;;;;;;;;;;;12.64;83.48;101757.59;5033904;27;19903;-68
2022/01/01 02:27:01;;;;;;;;;;;;;;;12.72;82.95;101770.25;5029329;27;19915;-69
2022/01/01 02:29:27;;;;;;;;;;;;;;;12.79;82.65;101765.25;5010706;28;20032;-69
2022/01/01 02:31:52;;;;;;;;;;;;;;;12.66;82.31;101773.38;5010343;28;19956;-68
2022/01/01 02:34:18;;;;;;;;;;;;;;;12.60;82.89;101766.78;5011148;28;20017;-68
2022/01/01 02:36:44;;;;;;;;;;;;;;;12.63;82.57;101766.50;5024429;27;20910;-69
2022/01/01 02:39:22;;;;;;;;;;;;;;;12.63;82.61;101763.03;5031896;27;19940;-69
2022/01/01 02:41:48;;;;;;;;;;;;;;;12.63;82.57;101758.53;5014675;28;19988;-70
2022/01/01 02:44:13;;;;;;;;;;;;;;;12.59;82.60;101764.25;5039237;27;20666;-68
2022/01/01 02:46:38;;;;;;;;;;;;;;;12.61;82.43;101754.34;5013087;27;19964;-69
2022/01/01 02:49:04;;;;;;;;;;;;;;;12.60;82.01;101752.66;5013456;27;19915;-68
2022/01/01 02:51:29;;;;;;;;;;;;;;;12.62;81.78;101756.88;5032694;27;20096;-68
2022/01/01 02:53:54;;;;;;;;;;;;;;;12.64;81.86;101762.06;5032131;27;20092;-69
2022/01/01 02:56:19;;;;;;;;;;;;;;;12.78;80.96;101766.25;5069979;27;20006;-69
2022/01/01 02:58:45;;;;;;;;;;;;;;;12.76;80.58;101773.47;5071132;27;20403;-69
2022/01/01 03:01:10;;;;;;;;;;;;;;;12.81;80.16;101768.66;5072418;27;20117;-69
2022/01/01 03:03:35;;;;;;;;;;;;;;;12.65;80.98;101769.91;5053815;27;20267;-69
2022/01/01 03:06:00;;;;;;;;;;;;;;;12.64;80.97;101767.38;5039949;27;19904;-69
2022/01/01 03:08:25;;;;;;;;;;;;;;;12.60;81.08;101774.72;5030021;27;19911;-69
2022/01/01 03:10:51;;;;;;;;;;;;;;;12.71;80.93;101785.31;5012171;28;20016;-70
2022/01/01 03:13:16;;;;;;;;;;;;;;;12.81;79.70;101792.56;5033085;27;20004;-69
2022/01/01 03:15:42;;;;;;;;;;;;;;;12.67;80.32;101788.38;5054648;27;19948;-68
2022/01/01 03:18:07;;;;;;;;;;;;;;;12.66;80.78;101797.28;5050533;27;20876;-68
2022/01/01 03:20:32;;;;;;;;;;;;;;;12.57;81.07;101785.59;5070564;27;20003;-69
2022/01/01 03:22:58;;;;;;;;;;;;;;;12.70;81.23;101794.28;5073247;27;20003;-69
2022/01/01 03:25:23;;;;;;;;;;;;;;;12.63;81.13;101786.94;5047245;27;19971;-69
2022/01/01 03:27:48;;;;;;;;;;;;;;;12.85;80.43;101792.16;5051754;27;19911;-69
2022/01/01 03:30:14;;;;;;;;;;;;;;;12.85;80.76;101791.34;5051607;27;19994;-68
2022/01/01 03:32:39;;;;;;;;;;;;;;;12.89;80.35;101782.97;5070793;27;20131;-68
2022/01/01 03:35:04;;;;;;;;;;;;;;;12.84;80.49;101785.16;5036387;27;20267;-68
2022/01/01 03:37:30;;;;;;;;;;;;;;;12.71;81.32;101787.97;5050404;27;21358;-69
2022/01/01 03:39:55;;;;;;;;;;;;;;;12.65;81.82;101790.31;5029541;28;20756;-69
2022/01/01 03:42:20;;;;;;;;;;;;;;;12.99;80.25;101788.38;5027451;27;20693;-69
2022/01/01 03:44:45;;;;;;;;;;;;;;;12.78;80.85;101787.50;5010209;28;20120;-70
2022/01/01 03:47:10;;;;;;;;;;;;;;;12.71;81.21;101777.34;5031463;27;20000;-69
2022/01/01 03:49:39;;;;;;;;;;;;;;;12.89;80.49;101768.88;5017550;27;20044;-69
2022/01/01 03:52:04;;;;;;;;;;;;;;;12.88;80.19;101775.97;5030892;27;20446;-69
2022/01/01 03:54:29;;;;;;;;;;;;;;;13.00;79.43;101763.50;5030220;27;20703;-69
2022/01/01 03:56:55;;;;;;;;;;;;;;;12.80;80.30;101761.66;5030866;27;19919;-69
2022/01/01 03:59:20;;;;;;;;;;;;;;;12.69;80.79;101755.41;5033500;27;19960;-70
2022/01/01 04:01:46;;;;;;;;;;;;;;;12.66;81.00;101754.81;5031010;27;19904;-68
2022/01/01 04:04:11;;;;;;;;;;;;;;;12.66;81.23;101752.16;4998099;27;19956;-68
2022/01/01 04:06:36;;;;;;;;;;;;;;;12.62;81.53;101758.69;5013842;27;19983;-70
2022/01/01 04:09:01;;;;;;;;;;;;;;;12.53;81.96;101755.78;5031298;27;20208;-68
2022/01/01 04:11:26;;;;;;;;;;;;;;;12.51;82.04;101752.44;5030069;27;20356;-68
2022/01/01 04:13:52;;;;;;;;;;;;;;;12.45;82.03;101739.66;5035629;27;20349;-69
2022/01/01 04:16:18;;;;;;;;;;;;;;;12.48;82.13;101738.56;5031754;27;20183;-68
2022/01/01 04:18:45;;;;;;;;;;;;;;;12.44;82.40;101737.16;5032338;27;19912;-68
2022/01/01 04:21:11;;;;;;;;;;;;;;;12.40;82.27;101733.06;5033392;27;19911;-69
2022/01/01 04:23:39;;;;;;;;;;;;;;;12.44;82.21;101739.81;5031626;27;19926;-69
2022/01/01 04:26:06;;;;;;;;;;;;;;;12.45;82.03;101736.16;5013164;27;20310;-68
2022/01/01 04:28:32;;;;;;;;;;;;;;;12.49;82.20;101745.56;5032744;27;19911;-69
2022/01/01 04:30:57;;;;;;;;;;;;;;;12.47;81.94;101747.50;5027441;27;19991;-69
2022/01/01 04:33:22;;;;;;;;;;;;;;;12.50;82.16;101744.59;5040665;27;19988;-68
2022/01/01 04:35:47;;;;;;;;;;;;;;;12.47;82.48;101755.47;5044961;27;19908;-69
2022/01/01 04:38:34;;;;;;;;;;;;;;;12.52;81.38;101740.00;5015752;27;19907;-69
2022/01/01 04:40:58;;;;;;;;;;;;;;;12.46;81.67;101746.66;5031247;27;19912;-69
2022/01/01 04:43:23;;;;;;;;;;;;;;;12.53;81.65;101749.66;5037114;27;20037;-68
2022/01/01 04:45:48;;;;;;;;;;;;;;;12.49;81.44;101742.91;5052347;27;20020;-68
2022/01/01 04:48:13;;;;;;;;;;;;;;;12.49;81.50;101748.22;5055475;27;20196;-68
2022/01/01 04:50:39;;;;;;;;;;;;;;;12.48;81.36;101743.88;5053125;27;20387;-68
2022/01/01 04:53:04;;;;;;;;;;;;;;;12.42;81.54;101744.38;5052741;27;20150;-68
2022/01/01 04:55:29;;;;;;;;;;;;;;;12.43;81.30;101746.91;5054328;27;19903;-68
2022/01/01 04:57:54;;;;;;;;;;;;;;;12.43;81.27;101749.56;4996728;28;19911;-69
2022/01/01 05:00:19;;;;;;;;;;;;;;;12.39;80.85;101748.13;5014137;28;19908;-69
2022/01/01 05:02:45;;;;;;;;;;;;;;;12.41;80.96;101754.16;4995229;28;19974;-69
2022/01/01 05:05:10;;;;;;;;;;;;;;;12.40;80.48;101749.81;5014171;28;19919;-68
2022/01/01 05:07:35;;;;;;;;;;;;;;;12.40;80.63;101754.28;5003086;27;19907;-69
2022/01/01 05:10:00;;;;;;;;;;;;;;;12.35;80.09;101747.53;5035008;27;20135;-69
2022/01/01 05:12:26;;;;;;;;;;;;;;;12.42;80.01;101761.13;5012285;27;20714;-69
2022/01/01 05:14:51;;;;;;;;;;;;;;;12.33;80.48;101749.44;5012948;27;20862;-69
2022/01/01 05:17:18;;;;;;;;;;;;;;;12.30;80.18;101759.50;5022298;27;20606;-69
2022/01/01 05:19:43;;;;;;;;;;;;;;;12.35;79.94;101755.50;5032347;27;19967;-69
2022/01/01 05:22:08;;;;;;;;;;;;;;;12.42;79.52;101763.78;5014948;27;20684;-68
2022/01/01 05:24:33;;;;;;;;;;;;;;;12.41;79.22;101771.88;5012464;27;20763;-69
2022/01/01 05:26:58;;;;;;;;;;;;;;;12.34;79.52;101772.38;5030018;27;20529;-69
2022/01/01 05:29:24;;;;;;;;;;;;;;;12.31;79.41;101771.78;5013244;27;20309;-69
2022/01/01 05:31:49;;;;;;;;;;;;;;;12.32;79.21;101776.97;5012930;27;19903;-69
2022/01/01 05:34:14;;;;;;;;;;;;;;;12.36;78.83;101773.09;4996584;27;20032;-68
2022/01/01 05:36:39;;;;;;;;;;;;;;;12.34;78.49;101771.53;5013888;27;19911;-69
2022/01/01 05:39:05;;;;;;;;;;;;;;;12.32;78.57;101763.72;5032699;27;19915;-69
2022/01/01 05:41:30;;;;;;;;;;;;;;;12.33;78.53;101775.16;5016170;27;19945;-68
2022/01/01 05:43:55;;;;;;;;;;;;;;;12.33;78.57;101775.16;5030807;27;20089;-68
2022/01/01 05:46:20;;;;;;;;;;;;;;;12.37;78.60;101780.09;5049517;27;19907;-68
2022/01/01 05:48:46;;;;;;;;;;;;;;;12.48;77.04;101784.56;5032093;27;20419;-68
2022/01/01 05:51:11;;;;;;;;;;;;;;;12.42;77.14;101789.50;5012712;27;19923;-69
2022/01/01 05:53:36;;;;;;;;;;;;;;;12.40;77.16;101780.84;5012549;27;19932;-68
2022/01/01 05:56:01;;;;;;;;;;;;;;;12.39;77.04;101773.81;5033732;27;19907;-68
2022/01/01 05:58:26;;;;;;;;;;;;;;;12.43;76.26;101781.41;5012728;27;19960;-69
2022/01/01 06:00:52;;;;;;;;;;;;;;;12.37;76.68;101772.13;5012500;27;20004;-69
2022/01/01 06:03:18;;;;;;;;;;;;;;;12.34;76.84;101775.03;5015023;27;20870;-68
2022/01/01 06:05:43;;;;;;;;;;;;;;;12.37;76.89;101781.91;5013459;27;20432;-68
2022/01/01 06:08:08;;;;;;;;;;;;;;;12.36;76.79;101786.34;4999637;27;20378;-69
2022/01/01 06:10:33;;;;;;;;;;;;;;;12.29;76.80;101779.03;5019812;27;19922;-67
2022/01/01 06:12:59;;;;;;;;;;;;;;;12.29;76.98;101773.72;5013581;27;19915;-69
2022/01/01 06:15:24;;;;;;;;;;;;;;;12.28;76.67;101783.50;5031188;27;19914;-68
2022/01/01 06:17:49;;;;;;;;;;;;;;;12.35;76.74;101779.38;4995487;27;19907;-68
2022/01/01 06:20:14;;;;;;;;;;;;;;;12.29;76.69;101766.59;5030354;27;19941;-68
2022/01/01 06:22:40;;;;;;;;;;;;;;;12.37;76.79;101772.13;5016979;27;19908;-68
2022/01/01 06:25:05;;;;;;;;;;;;;;;12.39;76.62;101773.81;5034050;27;20672;-68
2022/01/01 06:27:30;;;;;;;;;;;;;;;12.36;77.20;101774.91;5034232;27;19968;-70
2022/01/01 06:29:55;;;;;;;;;;;;;;;12.31;77.60;101782.38;5030480;27;20405;-69
2022/01/01 06:32:21;;;;;;;;;;;;;;;12.29;77.95;101782.50;5011115;27;20398;-70
2022/01/01 06:34:46;;;;;;;;;;;;;;;12.27;77.69;101784.47;5029704;27;20034;-70
2022/01/01 06:37:11;;;;;;;;;;;;;;;12.27;77.56;101787.13;5011746;27;20012;-69
2022/01/01 06:39:36;;;;;;;;;;;;;;;12.30;77.22;101792.16;5016091;27;19992;-69
2022/01/01 06:42:02;;;;;;;;;;;;;;;12.31;76.82;101793.00;5050112;27;19911;-68
2022/01/01 06:44:27;;;;;;;;;;;;;;;12.39;76.54;101795.06;5050578;27;19919;-68
2022/01/01 06:46:53;;;;;;;;;;;;;;;12.37;76.63;101798.66;5032229;27;19960;-68
2022/01/01 06:49:18;;;;;;;;;;;;;;;12.32;76.26;101806.19;5015510;27;19976;-69
2022/01/01 06:51:43;;;;;;;;;;;;;;;12.30;76.32;101805.44;4991420;28;20000;-68
2022/01/01 06:54:08;;;;;;;;;;;;;;;12.31;76.65;101807.13;5011205;28;19911;-68
2022/01/01 06:56:34;;;;;;;;;;;;;;;12.32;75.65;101816.78;5010147;28;19914;-69
2022/01/01 06:58:59;;;;;;;;;;;;;;;12.30;75.78;101812.56;5008711;28;19904;-68
2022/01/01 07:01:24;;;;;;;;;;;;;;;12.25;76.20;101812.91;5009238;28;19919;-69
2022/01/01 07:03:49;;;;;;;;;;;;;;;12.25;75.29;101820.88;5010595;28;19904;-69
2022/01/01 07:06:14;;;;;;;;;;;;;;;12.20;75.84;101817.75;5017561;28;20288;-68
2022/01/01 07:08:40;;;;;;;;;;;;;;;12.32;75.25;101822.09;5011873;28;20124;-68
2022/01/01 07:11:05;;;;;;;;;;;;;;;12.28;75.68;101819.78;5028530;27;20027;-69
2022/01/01 07:13:31;;;;;;;;;;;;;;;12.25;75.15;101820.03;4994066;28;19968;-70
2022/01/01 07:15:56;;;;;;;;;;;;;;;12.19;75.77;101826.69;5013262;28;20030;-68
2022/01/01 07:18:21;;;;;;;;;;;;;;;12.23;75.01;101827.28;4994714;28;20000;-69
2022/01/01 07:20:46;;;;;;;;;;;;;;;12.27;75.00;101829.56;5013312;27;20403;-69
2022/01/01 07:23:11;;;;;;;;;;;;;;;12.23;74.85;101822.81;5034096;27;19962;-68
2022/01/01 07:25:37;;;;;;;;;;;;;;;12.25;75.06;101825.34;5034288;27;20131;-68
2022/01/01 07:28:02;;;;;;;;;;;;;;;12.20;74.46;101823.06;5034686;27;20388;-69
2022/01/01 07:30:27;;;;;;;;;;;;;;;12.19;74.61;101826.69;5045603;27;20346;-70
2022/01/01 07:32:53;;;;;;;;;;;;;;;12.18;74.79;101822.31;5044678;27;20668;-69
2022/01/01 07:35:18;;;;;;;;;;;;;;;12.25;74.68;101823.53;5032638;27;20283;-68
2022/01/01 07:37:44;;;;;;;;;;;;;;;12.25;74.48;101826.19;5013610;27;19903;-68
2022/01/01 07:40:10;;;;;;;;;;;;;;;12.26;73.74;101827.88;5007804;27;19960;-69
2022/01/01 07:42:35;;;;;;;;;;;;;;;12.29;73.94;101829.44;5036359;27;19914;-68
2022/01/01 07:45:01;;;;;;;;;;;;;;;12.28;73.79;101839.22;5034648;27;19923;-67
2022/01/01 07:47:26;;;;;;;;;;;;;;;12.29;73.45;101838.25;5051592;27;20005;-69
2022/01/01 07:49:51;;;;;;;;;;;;;;;12.31;73.24;101840.78;5033818;27;20813;-68
2022/01/01 07:52:16;;;;;;;;;;;;;;;12.31;73.04;101841.63;5051927;27;19910;-69
2022/01/01 07:54:42;;;;;;;;;;;;;;;12.32;73.21;101843.34;5052198;27;20185;-69
2022/01/01 07:57:07;;;;;;;;;;;;;;;12.31;72.87;101840.78;5015664;27;20000;-68
2022/01/01 07:59:32;;;;;;;;;;;;;;;12.28;73.04;101836.59;5033541;27;19963;-69
2022/01/01 08:01:57;;;;;;;;;;;;;;;12.30;73.46;101839.13;5032552;27;19956;-68
2022/01/01 08:04:23;;;;;;;;;;;;;;;12.34;73.02;101840.56;5034715;27;20402;-68
2022/01/01 08:06:48;;;;;;;;;;;;;;;12.38;73.27;101842.00;5012786;27;19925;-67
2022/01/01 08:09:14;;;;;;;;;;;;;;;12.39;73.24;101833.06;4998210;27;20811;-67
2022/01/01 08:11:39;;;;;;;;;;;;;;;12.41;73.53;101843.56;5036677;27;19907;-68
2022/01/01 08:14:05;;;;;;;;;;;;;;;12.42;73.28;101826.66;5034667;27;19907;-68
2022/01/01 08:16:30;;;;;;;;;;;;;;;12.34;73.46;101830.78;5053164;27;20170;-67
2022/01/01 08:18:55;;;;;;;;;;;;;;;12.43;73.63;101836.31;5022554;27;19903;-67
2022/01/01 08:21:20;;;;;;;;;;;;;;;12.42;73.35;101831.97;5030499;27;20232;-68
2022/01/01 08:23:46;;;;;;;;;;;;;;;12.43;73.71;101841.63;5015743;27;19952;-68
2022/01/01 08:26:11;;;;;;;;;;;;;;;12.46;73.22;101844.03;5034703;27;20413;-68
2022/01/01 08:28:37;;;;;;;;;;;;;;;12.41;72.90;101839.09;4994993;27;19950;-67
2022/01/01 08:31:02;;;;;;;;;;;;;;;12.35;72.99;101843.09;5014306;27;19919;-67
2022/01/01 08:33:27;;;;;;;;;;;;;;;12.38;72.80;101842.00;4996366;27;20069;-66
2022/01/01 08:35:52;;;;;;;;;;;;;;;12.48;72.55;101844.75;5012764;27;19940;-67
2022/01/01 08:38:18;;;;;;;;;;;;;;;12.49;72.67;101843.78;5013499;27;20762;-67
2022/01/01 08:40:43;;;;;;;;;;;;;;;12.52;72.31;101843.53;5045069;27;20892;-67
2022/01/01 08:43:08;;;;;;;;;;;;;;;12.61;72.26;101848.13;5032202;27;20183;-67
2022/01/01 08:45:34;;;;;;;;;;;;;;;12.61;71.72;101850.78;5032256;27;19956;-68
2022/01/01 08:47:59;;;;;;;;;;;;;;;12.61;71.87;101853.44;5033126;27;19960;-68
2022/01/01 08:50:24;;;;;;;;;;;;;;;12.66;71.22;101848.63;5052318;27;19923;-67
2022/01/01 08:52:49;;;;;;;;;;;;;;;12.76;71.48;101847.84;5033154;27;19910;-67
2022/01/01 08:55:15;;;;;;;;;;;;;;;12.86;70.56;101843.47;5051717;27;20017;-68
2022/01/01 08:57:40;;;;;;;;;;;;;;;12.78;70.53;101854.72;5044250;27;20012;-68
2022/01/01 09:00:07;;;;;;;;;;;;;;;12.89;69.86;101840.59;4997307;27;19903;-67
2022/01/01 09:02:32;;;;;;;;;;;;;;;12.90;70.43;101836.94;5013535;27;20012;-68
2022/01/01 09:04:57;;;;;;;;;;;;;;;12.92;71.22;101829.72;5034530;27;19907;-68
2022/01/01 09:07:28;;;;;;;;;;;;;;;13.00;71.02;101835.25;5033034;27;19956;-68
2022/01/01 09:09:53;;;;;;;;;;;;;;;12.93;70.67;101836.72;5038244;27;20436;-68
2022/01/01 09:12:18;;;;;;;;;;;;;;;12.91;70.62;101833.31;5045048;27;19918;-67
2022/01/01 09:14:43;;;;;;;;;;;;;;;12.86;70.88;101831.06;5034510;27;19910;-67
2022/01/01 09:17:09;;;;;;;;;;;;;;;12.91;70.65;101838.63;5034165;27;20323;-67
2022/01/01 09:19:34;;;;;;;;;;;;;;;13.02;71.22;101837.78;5012527;27;20266;-68
2022/01/01 09:22:00;;;;;;;;;;;;;;;13.04;70.24;101827.84;4993882;27;19955;-68
2022/01/01 09:24:25;;;;;;;;;;;;;;;13.02;69.63;101830.63;4994642;27;20004;-68
2022/01/01 09:26:50;;;;;;;;;;;;;;;13.10;69.38;101847.75;5032228;27;19984;-68
2022/01/01 09:29:15;;;;;;;;;;;;;;;13.14;69.17;101835.91;5013857;27;19919;-68
2022/01/01 09:31:41;;;;;;;;;;;;;;;13.12;69.13;101841.34;5032093;27;19908;-68
2022/01/01 09:34:07;;;;;;;;;;;;;;;13.14;69.44;101841.22;5012854;27;20243;-68
2022/01/01 09:36:32;;;;;;;;;;;;;;;13.16;69.50;101847.28;5014199;27;21055;-68
2022/01/01 09:38:57;;;;;;;;;;;;;;;13.20;69.55;101843.41;5012410;27;19903;-67
2022/01/01 09:41:23;;;;;;;;;;;;;;;13.37;68.84;101848.16;5016468;27;19911;-67
2022/01/01 09:43:48;;;;;;;;;;;;;;;13.44;68.96;101844.97;5050207;27;19971;-68
2022/01/01 09:46:13;;;;;;;;;;;;;;;13.55;69.04;101836.94;5033438;27;20225;-67
2022/01/01 09:48:38;;;;;;;;;;;;;;;13.62;67.99;101842.59;5053828;27;20795;-67
2022/01/01 09:51:04;;;;;;;;;;;;;;;13.56;67.89;101838.66;5053607;27;20538;-68
2022/01/01 09:53:29;;;;;;;;;;;;;;;13.71;67.94;101839.19;5033824;27;20071;-68
2022/01/01 09:55:55;;;;;;;;;;;;;;;13.68;67.37;101836.78;5024113;27;20008;-69
2022/01/01 09:58:21;;;;;;;;;;;;;;;13.56;68.10;101841.31;5011196;27;20017;-69
2022/01/01 10:00:49;;;;;;;;;;;;;;;13.93;67.98;101851.47;4994197;27;19951;-70
2022/01/01 10:03:14;;;;;;;;;;;;;;;14.39;66.32;101855.47;5028908;27;19900;-70
2022/01/01 10:05:58;;;;;;;;;;;;;;;15.08;64.39;101853.00;5024742;27;19908;-68
2022/01/01 10:08:23;;;;;;;;;;;;;;;14.99;63.14;101852.03;5027809;27;20793;-67
2022/01/01 10:10:49;;;;;;;;;;;;;;;15.11;62.50;101847.38;5007414;27;19923;-69
2022/01/01 10:13:16;;;;;;;;;;;;;;;14.65;63.51;101855.03;5030983;27;20056;-67
2022/01/01 10:15:41;;;;;;;;;;;;;;;14.89;63.57;101860.00;5030252;27;19910;-68
2022/01/01 10:18:06;;;;;;;;;;;;;;;14.97;62.79;101859.28;5032372;27;19923;-68
2022/01/01 10:20:34;;;;;;;;;;;;;;;14.87;63.16;101858.44;5010807;27;20172;-68
2022/01/01 10:23:15;;;;;;;;;;;;;;;14.92;63.17;101858.88;5033203;27;20362;-68
2022/01/01 10:28:24;;;;;;;;;;;;;;;15.39;61.81;101850.19;5030277;27;19987;-68
2022/01/01 10:30:49;;;;;;;;;;;;;;;15.63;61.30;101837.25;5012844;27;20629;-68
2022/01/01 10:33:15;;;;;;;;;;;;;;;15.98;60.50;101845.63;5016205;27;20633;-68
2022/01/01 10:35:40;;;;;;;;;;;;;;;16.19;59.41;101841.88;5017531;27;19908;-70
2022/01/01 10:38:06;;;;;;;;;;;;;;;15.85;60.12;101850.44;5032905;27;19908;-69
2022/01/01 10:40:32;;;;;;;;;;;;;;;15.87;60.11;101841.31;5008485;27;20812;-68
2022/01/01 10:42:57;;;;;;;;;;;;;;;15.73;61.07;101837.22;5013563;27;19911;-70
2022/01/01 10:45:29;;;;;;;;;;;;;;;15.91;60.07;101840.03;5054920;27;20464;-69
2022/01/01 10:50:43;;;;;;;;;;;;;;;16.06;60.68;101835.06;5034373;27;19981;-69
2022/01/01 10:53:08;;;;;;;;;;;;;;;15.78;60.39;101834.97;5021979;27;20227;-68
2022/01/01 10:55:33;;;;;;;;;;;;;;;15.88;61.39;101820.81;5020055;27;20702;-69
2022/01/01 10:58:00;;;;;;;;;;;;;;;15.55;60.72;101818.47;5024777;27;19903;-68
2022/01/01 11:00:26;;;;;;;;;;;;;;;15.38;61.62;101814.66;5036971;27;19915;-68
2022/01/01 11:02:54;;;;;;;;;;;;;;;15.19;61.96;101812.88;5045080;27;20882;-68
2022/01/01 11:05:29;;;;;;;;;;;;;;;15.33;62.42;101813.41;5029237;27;19907;-68
2022/01/01 11:07:55;;;;;;;;;;;;;;;15.45;62.23;101812.28;5051784;27;20821;-67
2022/01/01 11:10:20;;;;;;;;;;;;;;;15.76;60.89;101807.56;5033962;27;19927;-68
2022/01/01 11:12:46;;;;;;;;;;;;;;;15.84;59.86;101800.72;5035415;27;20806;-68
2022/01/01 11:15:11;;;;;;;;;;;;;;;16.57;59.20;101803.47;5038362;27;19900;-68
2022/01/01 11:17:36;;;;;;;;;;;;;;;16.38;58.73;101804.41;5048709;27;19911;-69
2022/01/01 11:20:03;;;;;;;;;;;;;;;16.14;59.40;101805.81;5038503;27;19908;-68
2022/01/01 11:22:28;;;;;;;;;;;;;;;15.61;60.66;101798.38;5024990;27;20740;-69
2022/01/01 11:24:53;;;;;;;;;;;;;;;15.14;61.75;101793.78;5042642;27;20878;-68
2022/01/01 11:27:18;;;;;;;;;;;;;;;14.93;63.32;101788.59;5030118;27;20493;-70
2022/01/01 11:29:50;;;;;;;;;;;;;;;14.92;63.36;101776.25;5035044;27;20749;-69
2022/01/01 11:32:16;;;;;;;;;;;;;;;14.58;64.55;101780.13;5022038;27;19926;-70
2022/01/01 11:34:42;;;;;;;;;;;;;;;14.71;64.41;101774.56;5034239;27;20345;-68
2022/01/01 11:37:07;;;;;;;;;;;;;;;14.71;64.10;101766.56;5011335;27;20311;-69
2022/01/01 11:39:32;;;;;;;;;;;;;;;14.84;63.97;101770.78;5060909;27;19907;-69
2022/01/01 11:42:08;;;;;;;;;;;;;;;14.85;64.42;101748.47;5043135;27;19983;-69
2022/01/01 11:44:34;;;;;;;;;;;;;;;14.77;64.60;101760.66;5039914;27;19966;-69
2022/01/01 11:47:01;;;;;;;;;;;;;;;14.58;64.95;101750.81;5062009;27;19951;-68
2022/01/01 11:49:27;;;;;;;;;;;;;;;14.58;65.07;101736.63;5057033;27;19911;-69
2022/01/01 11:51:53;;;;;;;;;;;;;;;14.71;64.75;101739.91;5061647;27;20150;-69
2022/01/01 11:54:33;;;;;;;;;;;;;;;14.75;64.72;101725.34;5057429;27;19903;-69
2022/01/01 11:57:18;;;;;;;;;;;;;;;14.78;64.97;101713.56;5054099;27;19992;-68
2022/01/01 11:59:50;;;;;;;;;;;;;;;14.91;64.46;101713.28;5044754;27;19963;-69
2022/01/01 12:02:18;;;;;;;;;;;;;;;15.14;64.46;101712.97;5057899;27;19899;-68
2022/01/01 12:04:45;;;;;;;;;;;;;;;15.38;63.49;101710.66;5058984;27;19907;-68
2022/01/01 12:07:10;;;;;;;;;;;;;;;15.89;61.49;101713.03;5040475;27;19908;-68
2022/01/01 12:09:54;;;;;;;;;;;;;;;16.75;59.15;101707.28;5028815;27;19934;-68
2022/01/01 12:12:34;;;;;;;;;;;;;;;17.01;58.07;101709.16;5044513;27;19908;-69
2022/01/01 12:14:59;;;;;;;;;;;;;;;17.31;57.32;101701.69;5026818;27;20321;-69
2022/01/01 12:17:24;;;;;;;;;;;;;;;17.05;57.35;101702.53;5054235;27;20101;-67
2022/01/01 12:19:50;;;;;;;;;;;;;;;16.49;59.03;101699.16;5020728;27;19911;-69
2022/01/01 12:22:15;;;;;;;;;;;;;;;15.92;60.66;101696.72;5033984;27;20004;-69
2022/01/01 12:24:41;;;;;;;;;;;;;;;15.83;60.68;101698.44;5027181;27;19915;-68
2022/01/01 12:27:13;;;;;;;;;;;;;;;15.38;62.44;101697.31;5020382;27;19903;-68
2022/01/01 12:29:38;;;;;;;;;;;;;;;15.09;63.58;101692.91;5050592;27;19919;-67
2022/01/01 12:32:05;;;;;;;;;;;;;;;14.82;64.27;101693.66;5021436;27;19959;-69
2022/01/01 12:34:30;;;;;;;;;;;;;;;14.88;64.72;101697.56;5052020;27;20185;-69